createdAt,value
2023-05-17T00:00:42.886Z,9.45
2023-05-17T00:03:09.985Z,9.39
2023-05-17T00:05:36.908Z,9.41
2023-05-17T00:08:05.956Z,9.34
2023-05-17T00:10:34.210Z,9.32
2023-05-17T00:13:01.348Z,9.31
2023-05-17T00:15:28.480Z,9.23
2023-05-17T00:17:55.707Z,9.05
2023-05-17T00:20:23.882Z,8.89
2023-05-17T00:22:50.930Z,8.93
2023-05-17T00:25:19.283Z,8.97
2023-05-17T00:27:46.261Z,9.03
2023-05-17T00:30:13.792Z,9.08
2023-05-17T00:32:40.786Z,9.12
2023-05-17T00:35:08.226Z,9.08
2023-05-17T00:37:35.284Z,8.96
2023-05-17T00:40:05.032Z,8.96
2023-05-17T00:42:33.488Z,8.56
2023-05-17T00:45:00.705Z,8.39
2023-05-17T00:47:28.132Z,8.17
2023-05-17T00:49:55.584Z,8.02
2023-05-17T00:52:22.730Z,8.07
2023-05-17T00:54:52.431Z,8.13
2023-05-17T00:57:20.101Z,8.17
2023-05-17T00:59:52.181Z,8.19
2023-05-17T01:02:19.319Z,8.02
2023-05-17T01:04:48.074Z,7.81
2023-05-17T01:07:15.995Z,7.81
2023-05-17T01:09:47.085Z,7.74
2023-05-17T01:12:32.529Z,7.86
2023-05-17T01:15:14.868Z,7.99
2023-05-17T01:17:54.391Z,8.04
2023-05-17T01:20:28.563Z,7.88
2023-05-17T01:23:20.278Z,7.86
2023-05-17T01:26:07.817Z,7.78
2023-05-17T01:28:39.269Z,7.78
2023-05-17T01:31:08.817Z,7.82
2023-05-17T01:33:38.660Z,7.84
2023-05-17T01:36:07.249Z,7.89
2023-05-17T01:38:34.467Z,7.96
2023-05-17T01:41:15.449Z,8.06
2023-05-17T01:43:49.790Z,8.14
2023-05-17T01:46:31.985Z,8.18
2023-05-17T01:49:10.987Z,8.23
2023-05-17T01:51:47.879Z,8.27
2023-05-17T01:54:21.699Z,8.31
2023-05-17T01:56:57.459Z,8.32
2023-05-17T01:59:29.564Z,8.27
2023-05-17T02:02:01.537Z,8.12
2023-05-17T02:04:31.278Z,7.84
2023-05-17T02:07:02.247Z,7.75
2023-05-17T02:09:29.438Z,7.75
2023-05-17T02:11:56.422Z,7.74
2023-05-17T02:14:25.043Z,7.82
2023-05-17T02:16:52.386Z,7.86
2023-05-17T02:19:19.370Z,7.90
2023-05-17T02:21:46.492Z,7.69
2023-05-17T02:24:41.678Z,7.65
2023-05-17T02:27:08.714Z,7.63
2023-05-17T02:29:37.243Z,7.60
2023-05-17T02:32:06.503Z,7.61
2023-05-17T02:34:33.475Z,7.70
2023-05-17T02:37:00.372Z,7.77
2023-05-17T02:39:27.427Z,7.80
2023-05-17T02:41:54.511Z,7.74
2023-05-17T02:44:21.544Z,7.69
2023-05-17T02:46:49.937Z,7.72
2023-05-17T02:49:17.164Z,7.71
2023-05-17T02:51:44.150Z,7.70
2023-05-17T02:54:11.522Z,7.72
2023-05-17T02:56:38.593Z,7.73
2023-05-17T02:59:05.755Z,7.80
2023-05-17T03:01:34.254Z,7.70
2023-05-17T03:04:03.013Z,7.73
2023-05-17T03:06:30.276Z,7.79
2023-05-17T03:13:06.516Z,7.69
2023-05-17T03:15:37.789Z,7.66
2023-05-17T03:18:05.382Z,7.72
2023-05-17T03:20:33.885Z,7.79
2023-05-17T03:23:00.908Z,7.80
2023-05-17T03:25:28.076Z,7.84
2023-05-17T03:27:55.952Z,7.83
2023-05-17T03:30:23.118Z,7.85
2023-05-17T03:32:50.494Z,7.87
2023-05-17T03:35:17.508Z,7.84
2023-05-17T03:37:50.206Z,7.84
2023-05-17T03:40:17.787Z,7.85
2023-05-17T03:42:44.933Z,7.78
2023-05-17T03:45:13.071Z,7.66
2023-05-17T03:47:40.197Z,7.68
2023-05-17T03:50:09.273Z,7.52
2023-05-17T03:52:37.026Z,7.25
2023-05-17T03:55:06.091Z,7.19
2023-05-17T03:57:33.687Z,6.99
2023-05-17T04:00:02.605Z,7.06
2023-05-17T04:02:31.132Z,6.98
2023-05-17T04:04:58.173Z,6.75
2023-05-17T04:07:25.209Z,6.88
2023-05-17T04:09:52.512Z,7.05
2023-05-17T04:12:21.299Z,6.86
2023-05-17T04:14:48.363Z,6.99
2023-05-17T04:17:16.885Z,7.16
2023-05-17T04:19:45.734Z,7.36
2023-05-17T04:22:12.990Z,7.52
2023-05-17T04:24:39.980Z,7.66
2023-05-17T04:27:07.025Z,7.81
2023-05-17T04:29:36.292Z,7.89
2023-05-17T04:32:04.206Z,7.89
2023-05-17T04:34:31.165Z,7.91
2023-05-17T04:36:58.218Z,8.08
2023-05-17T04:39:26.405Z,8.43
2023-05-17T04:41:54.147Z,8.68
2023-05-17T04:44:21.292Z,8.68
2023-05-17T04:46:49.500Z,8.69
2023-05-17T04:49:16.485Z,8.74
2023-05-17T04:51:43.639Z,8.54
2023-05-17T04:54:11.881Z,8.63
2023-05-17T04:56:39.150Z,8.64
2023-05-17T04:59:11.448Z,8.80
2023-05-17T05:01:38.366Z,9.03
2023-05-17T05:04:07.449Z,9.24
2023-05-17T05:06:39.910Z,9.54
2023-05-17T05:09:07.069Z,9.95
2023-05-17T05:11:36.533Z,10.49
2023-05-17T05:14:04.552Z,10.86
2023-05-17T05:16:31.411Z,11.30
2023-05-17T05:18:58.509Z,11.81
2023-05-17T05:21:27.044Z,12.11
2023-05-17T05:24:19.883Z,12.41
2023-05-17T05:26:47.756Z,12.69
2023-05-17T05:29:18.519Z,13.18
2023-05-17T05:32:12.119Z,13.47
2023-05-17T05:34:44.633Z,13.70
2023-05-17T05:37:13.182Z,13.67
2023-05-17T05:39:40.087Z,14.09
2023-05-17T05:42:58.588Z,14.82
2023-05-17T05:45:25.646Z,15.73
2023-05-17T05:47:54.906Z,16.12
2023-05-17T05:50:22.432Z,16.29
2023-05-17T05:53:44.636Z,16.70
2023-05-17T05:56:12.923Z,17.16
2023-05-17T05:58:40.222Z,17.89
2023-05-17T06:01:45.401Z,17.97
2023-05-17T06:04:12.664Z,17.87
2023-05-17T06:06:40.638Z,18.31
2023-05-17T06:09:08.890Z,18.33
2023-05-17T06:11:35.787Z,18.51
2023-05-17T06:14:02.649Z,19.02
2023-05-17T06:16:30.431Z,19.54
2023-05-17T06:18:57.355Z,19.68
2023-05-17T06:21:24.309Z,20.29
2023-05-17T06:23:51.588Z,19.59
2023-05-17T06:26:19.827Z,20.41
2023-05-17T06:28:47.243Z,20.68
2023-05-17T06:38:34.565Z,19.86
2023-05-17T06:41:01.454Z,19.58
2023-05-17T06:43:29.714Z,20.17
2023-05-17T06:45:56.951Z,20.09
2023-05-17T06:48:24.622Z,19.32
2023-05-17T06:50:53.338Z,19.24
2023-05-17T06:53:20.676Z,18.83
2023-05-17T06:55:47.678Z,17.33
2023-05-17T06:58:14.562Z,18.20
2023-05-17T07:00:59.141Z,18.16
2023-05-17T07:03:26.427Z,18.79
2023-05-17T07:05:53.403Z,19.14
2023-05-17T07:08:20.661Z,19.08
2023-05-17T07:11:12.997Z,19.14
2023-05-17T07:13:40.926Z,19.17
2023-05-17T07:16:09.505Z,18.44
2023-05-17T07:18:36.611Z,18.17
2023-05-17T07:21:32.650Z,18.46
2023-05-17T07:24:00.795Z,19.38
2023-05-17T07:26:27.971Z,19.49
2023-05-17T07:29:48.823Z,19.37
2023-05-17T07:32:18.179Z,18.98
2023-05-17T07:34:45.359Z,19.07
2023-05-17T07:37:12.448Z,19.53
2023-05-17T07:39:39.693Z,19.50
2023-05-17T07:42:07.676Z,19.88
2023-05-17T07:44:34.777Z,19.24
2023-05-17T07:48:16.900Z,19.29
2023-05-17T07:50:45.806Z,18.83
2023-05-17T07:54:38.056Z,19.27
2023-05-17T07:57:05.462Z,18.15
2023-05-17T07:59:32.475Z,17.80
2023-05-17T08:01:59.524Z,18.06
2023-05-17T08:04:26.497Z,18.18
2023-05-17T08:06:54.735Z,18.66
2023-05-17T08:09:21.877Z,17.00
2023-05-17T08:11:48.737Z,13.81
2023-05-17T08:14:16.811Z,14.41
2023-05-17T08:16:46.299Z,15.85
2023-05-17T08:19:14.924Z,16.53
2023-05-17T08:22:56.919Z,16.52
2023-05-17T08:25:25.279Z,17.13
2023-05-17T08:27:52.194Z,15.33
2023-05-17T08:30:28.579Z,15.85
2023-05-17T08:32:56.304Z,14.84
2023-05-17T08:35:25.511Z,16.11
2023-05-17T08:37:54.060Z,16.45
2023-05-17T08:40:57.442Z,16.88
2023-05-17T08:43:26.873Z,17.22
2023-05-17T08:45:55.095Z,17.09
2023-05-17T08:48:22.113Z,17.11
2023-05-17T08:50:52.929Z,17.77
2023-05-17T08:53:20.176Z,17.98
2023-05-17T08:55:47.580Z,18.11
2023-05-17T08:58:23.382Z,18.11
2023-05-17T09:00:52.521Z,17.98
2023-05-17T09:03:21.827Z,15.21
2023-05-17T09:05:51.311Z,15.90
2023-05-17T09:08:18.974Z,16.06
2023-05-17T09:10:46.022Z,14.96
2023-05-17T09:13:13.278Z,14.96
2023-05-17T09:16:13.300Z,15.24
2023-05-17T09:18:41.992Z,15.99
2023-05-17T09:21:13.486Z,16.47
2023-05-17T09:23:40.798Z,16.66
2023-05-17T09:26:08.083Z,16.59
2023-05-17T09:28:42.289Z,16.21
2023-05-17T09:31:12.233Z,16.04
2023-05-17T09:33:43.845Z,15.86
2023-05-17T09:36:19.971Z,16.09
2023-05-17T09:38:55.819Z,15.89
2023-05-17T09:41:26.709Z,15.94
2023-05-17T09:43:58.044Z,15.95
2023-05-17T09:46:26.453Z,16.02
2023-05-17T09:48:55.899Z,15.88
2023-05-17T09:51:34.318Z,15.85
2023-05-17T09:54:01.332Z,15.90
2023-05-17T09:56:29.440Z,15.85
2023-05-17T09:58:56.807Z,15.94
2023-05-17T10:01:29.242Z,15.89
2023-05-17T10:04:00.660Z,15.56
2023-05-17T10:06:45.964Z,15.70
2023-05-17T10:09:22.278Z,15.34
2023-05-17T10:11:52.863Z,15.42
2023-05-17T10:14:28.664Z,15.23
2023-05-17T10:16:58.478Z,15.41
2023-05-17T10:19:26.569Z,15.50
2023-05-17T10:21:55.236Z,14.49
2023-05-17T10:24:26.922Z,14.51
2023-05-17T10:26:55.505Z,14.31
2023-05-17T10:29:23.721Z,14.45
2023-05-17T10:31:50.907Z,14.19
2023-05-17T10:34:20.877Z,14.08
2023-05-17T10:36:50.985Z,14.04
2023-05-17T10:39:18.237Z,14.62
2023-05-17T10:41:48.747Z,15.07
2023-05-17T10:44:18.039Z,15.29
2023-05-17T10:46:53.553Z,15.54
2023-05-17T10:49:25.246Z,15.42
2023-05-17T10:51:55.527Z,15.87
2023-05-17T10:54:35.812Z,16.00
2023-05-17T10:57:07.857Z,16.09
2023-05-17T10:59:36.075Z,15.40
2023-05-17T11:02:07.151Z,15.54
2023-05-17T11:04:39.013Z,15.44
2023-05-17T11:07:22.699Z,15.67
2023-05-17T11:09:53.600Z,15.64
2023-05-17T11:12:34.255Z,15.66
2023-05-17T11:15:08.437Z,15.65
2023-05-17T11:17:47.060Z,15.77
2023-05-17T11:20:34.135Z,15.82
2023-05-17T11:23:03.646Z,15.79
2023-05-17T11:25:33.120Z,15.77
2023-05-17T11:28:00.169Z,15.52
2023-05-17T11:30:31.038Z,15.55
2023-05-17T11:33:03.662Z,15.73
2023-05-17T11:35:38.519Z,15.68
2023-05-17T11:38:16.952Z,15.60
2023-05-17T11:40:45.611Z,15.82
2023-05-17T11:43:15.256Z,15.90
2023-05-17T11:45:44.269Z,16.07
2023-05-17T11:48:13.330Z,16.12
2023-05-17T11:50:43.441Z,16.28
2023-05-17T11:53:12.908Z,16.26
2023-05-17T11:55:42.808Z,16.14
2023-05-17T11:58:11.949Z,15.57
2023-05-17T12:00:40.811Z,15.85
2023-05-17T12:03:22.022Z,16.07
2023-05-17T12:06:02.992Z,16.29
2023-05-17T12:08:32.302Z,16.41
2023-05-17T12:10:59.487Z,16.18
2023-05-17T12:13:29.222Z,16.26
2023-05-17T12:16:00.871Z,16.04
2023-05-17T12:18:36.326Z,15.48
2023-05-17T12:21:06.387Z,15.90
2023-05-17T12:23:36.474Z,16.09
2023-05-17T12:26:09.862Z,16.16
2023-05-17T12:28:41.148Z,16.42
2023-05-17T12:31:12.179Z,16.59
2023-05-17T12:33:42.440Z,16.69
2023-05-17T12:36:12.582Z,16.71
2023-05-17T12:38:43.389Z,16.95
2023-05-17T12:41:12.823Z,17.05
2023-05-17T12:43:40.639Z,15.97
2023-05-17T12:46:10.690Z,16.23
2023-05-17T12:48:39.953Z,16.18
2023-05-17T12:51:11.937Z,16.79
2023-05-17T12:53:42.621Z,17.19
2023-05-17T12:56:16.902Z,16.89
2023-05-17T12:58:44.110Z,17.13
2023-05-17T13:01:11.558Z,17.36
2023-05-17T13:03:38.684Z,17.00
2023-05-17T13:06:09.402Z,16.68
2023-05-17T13:08:38.437Z,16.93
2023-05-17T13:11:11.210Z,17.19
2023-05-17T13:13:38.407Z,17.30
2023-05-17T13:16:06.513Z,17.25
2023-05-17T13:18:51.376Z,17.08
2023-05-17T13:21:20.267Z,17.05
2023-05-17T13:23:50.642Z,16.81
2023-05-17T13:26:19.452Z,16.85
2023-05-17T13:28:46.711Z,16.90
2023-05-17T13:31:13.817Z,16.67
2023-05-17T13:33:41.108Z,16.68
2023-05-17T13:36:08.438Z,16.29
2023-05-17T13:38:36.321Z,16.39
2023-05-17T13:41:05.568Z,16.19
2023-05-17T13:43:33.297Z,16.17
2023-05-17T13:46:01.538Z,16.01
2023-05-17T13:48:30.311Z,16.01
2023-05-17T13:50:57.363Z,16.10
2023-05-17T13:53:25.585Z,16.07
2023-05-17T13:55:52.541Z,15.98
2023-05-17T13:58:20.957Z,16.10
2023-05-17T14:00:48.257Z,16.32
2023-05-17T14:03:15.376Z,16.64
2023-05-17T14:05:43.274Z,16.92
2023-05-17T14:08:11.296Z,16.86
2023-05-17T14:10:38.250Z,14.94
2023-05-17T14:13:06.255Z,14.90
2023-05-17T14:15:36.301Z,15.23
2023-05-17T14:18:03.369Z,15.77
2023-05-17T14:20:30.925Z,16.22
2023-05-17T14:22:58.585Z,16.67
2023-05-17T14:25:26.450Z,15.82
2023-05-17T14:27:53.396Z,15.90
2023-05-17T14:30:21.864Z,16.26
2023-05-17T14:32:51.597Z,15.15
2023-05-17T14:35:19.262Z,15.31
2023-05-17T14:38:13.400Z,15.70
2023-05-17T14:40:40.740Z,15.25
2023-05-17T14:43:07.677Z,15.11
2023-05-17T14:45:34.938Z,14.74
2023-05-17T14:48:03.392Z,15.25
2023-05-17T14:50:30.690Z,15.62
2023-05-17T14:52:57.722Z,15.91
2023-05-17T14:55:24.731Z,15.76
2023-05-17T14:57:52.796Z,14.90
2023-05-17T15:00:21.532Z,14.52
2023-05-17T15:02:48.579Z,14.98
2023-05-17T15:05:17.278Z,15.39
2023-05-17T15:07:45.631Z,14.92
2023-05-17T15:10:13.450Z,14.83
2023-05-17T15:12:40.543Z,15.22
2023-05-17T15:15:09.685Z,15.49
2023-05-17T15:17:36.695Z,15.80
2023-05-17T15:20:04.803Z,15.99
2023-05-17T15:22:34.521Z,16.19
2023-05-17T15:25:02.320Z,16.45
2023-05-17T15:27:30.710Z,16.70
2023-05-17T15:29:57.707Z,16.87
2023-05-17T15:32:24.778Z,16.91
2023-05-17T15:34:51.851Z,16.82
2023-05-17T15:37:18.900Z,16.83
2023-05-17T15:39:48.031Z,16.81
2023-05-17T15:42:14.984Z,16.95
2023-05-17T15:44:43.403Z,16.99
2023-05-17T15:47:10.629Z,16.27
2023-05-17T15:49:37.565Z,15.31
2023-05-17T15:52:07.533Z,15.37
2023-05-17T15:54:34.541Z,15.37
2023-05-17T15:57:11.872Z,15.42
2023-05-17T15:59:43.923Z,15.51
2023-05-17T16:02:11.051Z,15.64
2023-05-17T16:04:38.494Z,15.92
2023-05-17T16:07:06.337Z,16.05
2023-05-17T16:09:44.905Z,16.27
2023-05-17T16:12:32.847Z,16.42
2023-05-17T16:15:00.203Z,16.59
2023-05-17T16:17:27.527Z,16.71
2023-05-17T16:19:55.630Z,16.42
2023-05-17T16:22:22.640Z,16.00
2023-05-17T16:24:52.316Z,15.48
2023-05-17T16:27:19.828Z,15.36
2023-05-17T16:29:48.182Z,15.23
2023-05-17T16:32:15.799Z,15.20
2023-05-17T16:34:42.956Z,15.25
2023-05-17T16:37:09.968Z,14.98
2023-05-17T16:39:36.840Z,14.98
2023-05-17T16:42:05.368Z,14.98
2023-05-17T16:44:32.579Z,15.06
2023-05-17T16:47:01.578Z,15.27
2023-05-17T16:49:28.562Z,15.49
2023-05-17T16:51:55.806Z,15.66
2023-05-17T16:54:22.775Z,15.74
2023-05-17T16:56:50.635Z,15.40
2023-05-17T16:59:17.621Z,15.35
2023-05-17T17:01:45.026Z,15.45
2023-05-17T17:04:13.498Z,15.23
2023-05-17T17:06:41.329Z,15.20
2023-05-17T17:09:08.479Z,15.05
2023-05-17T17:11:35.343Z,14.95
2023-05-17T17:14:02.388Z,14.95
2023-05-17T17:16:29.525Z,14.90
2023-05-17T17:18:57.640Z,14.69
2023-05-17T17:21:26.585Z,14.73
2023-05-17T17:23:53.489Z,14.72
2023-05-17T17:26:20.833Z,14.76
2023-05-17T17:28:47.813Z,14.66
2023-05-17T17:31:15.364Z,14.68
2023-05-17T17:33:42.310Z,14.72
2023-05-17T17:36:09.637Z,14.64
2023-05-17T17:38:38.947Z,14.72
2023-05-17T17:41:06.015Z,14.79
2023-05-17T17:43:38.930Z,14.82
2023-05-17T17:46:05.909Z,14.84
2023-05-17T17:48:32.930Z,14.87
2023-05-17T17:51:00.034Z,14.89
2023-05-17T17:53:27.093Z,14.86
2023-05-17T17:55:56.964Z,14.80
2023-05-17T17:58:24.884Z,14.83
2023-05-17T18:00:51.937Z,14.78
2023-05-17T18:03:19.112Z,14.80
2023-05-17T18:05:46.853Z,14.72
2023-05-17T18:08:14.356Z,14.67
2023-05-17T18:10:41.281Z,14.63
2023-05-17T18:13:09.702Z,14.62
2023-05-17T18:15:37.870Z,14.61
2023-05-17T18:18:04.863Z,14.66
2023-05-17T18:20:32.001Z,14.61
2023-05-17T18:23:00.152Z,14.56
2023-05-17T18:25:27.202Z,14.49
2023-05-17T18:27:54.043Z,14.41
2023-05-17T18:30:22.354Z,14.39
2023-05-17T18:32:49.392Z,14.29
2023-05-17T18:35:16.355Z,14.23
2023-05-17T18:37:43.217Z,14.12
2023-05-17T18:40:11.855Z,14.07
2023-05-17T18:42:38.893Z,14.04
2023-05-17T18:45:07.638Z,14.03
2023-05-17T18:47:35.893Z,14.03
2023-05-17T18:50:03.753Z,13.99
2023-05-17T18:52:30.647Z,13.88
2023-05-17T18:55:43.367Z,13.87
2023-05-17T18:58:10.271Z,13.87
2023-05-17T19:00:37.204Z,13.80
2023-05-17T19:03:05.714Z,13.81
2023-05-17T19:05:32.644Z,13.77
2023-05-17T19:07:59.704Z,13.79
2023-05-17T19:10:26.779Z,13.41
2023-05-17T19:12:53.928Z,13.32
2023-05-17T19:15:20.843Z,13.38
2023-05-17T19:17:48.066Z,13.40
2023-05-17T19:20:17.587Z,13.42
2023-05-17T19:22:45.450Z,13.43
2023-05-17T19:25:13.394Z,13.43
2023-05-17T19:27:41.445Z,13.44
2023-05-17T19:30:09.715Z,13.44
2023-05-17T19:32:36.871Z,13.43
2023-05-17T19:35:04.389Z,13.32
2023-05-17T19:37:32.829Z,13.25
2023-05-17T19:39:59.821Z,13.06
2023-05-17T19:42:26.867Z,12.77
2023-05-17T19:44:53.781Z,12.57
2023-05-17T19:47:20.906Z,12.48
2023-05-17T19:49:48.033Z,12.26
2023-05-17T19:52:15.383Z,12.16
2023-05-17T19:54:43.728Z,12.03
2023-05-17T19:57:10.714Z,11.98
2023-05-17T19:59:37.609Z,11.73
2023-05-17T20:02:05.434Z,11.63
2023-05-17T20:05:25.977Z,11.73
2023-05-17T20:08:04.930Z,11.67
2023-05-17T20:10:33.942Z,11.64
2023-05-17T20:13:12.586Z,11.67
2023-05-17T20:15:40.015Z,11.55
2023-05-17T20:18:06.971Z,11.43
2023-05-17T20:20:34.810Z,11.40
2023-05-17T20:23:01.732Z,11.42
2023-05-17T20:25:30.165Z,11.20
2023-05-17T20:27:58.383Z,11.27
2023-05-17T20:30:25.350Z,11.32
2023-05-17T20:32:52.303Z,11.38
2023-05-17T20:35:19.991Z,11.40
2023-05-17T20:37:46.856Z,11.36
2023-05-17T20:40:13.965Z,11.27
2023-05-17T20:42:41.015Z,11.10
2023-05-17T20:45:12.039Z,10.98
2023-05-17T20:47:40.184Z,10.91
2023-05-17T20:50:09.365Z,10.91
2023-05-17T20:52:39.622Z,10.88
2023-05-17T20:55:08.961Z,10.87
2023-05-17T20:57:35.909Z,10.80
2023-05-17T21:00:03.199Z,10.58
2023-05-17T21:02:32.773Z,10.29
2023-05-17T21:04:59.732Z,10.29
2023-05-17T21:07:26.829Z,10.42
2023-05-17T21:09:53.738Z,10.55
2023-05-17T21:12:23.175Z,10.65
2023-05-17T21:15:04.317Z,10.69
2023-05-17T21:17:39.634Z,10.68
2023-05-17T21:20:08.456Z,10.67
2023-05-17T21:22:35.271Z,10.63
2023-05-17T21:28:08.069Z,10.44
2023-05-17T21:30:35.492Z,10.38
2023-05-17T21:33:03.972Z,10.39
2023-05-17T21:35:31.016Z,10.40
2023-05-17T21:37:57.952Z,10.26
2023-05-17T21:40:25.149Z,10.25
2023-05-17T21:42:52.050Z,10.25
2023-05-17T21:45:19.046Z,10.30
2023-05-17T21:47:47.428Z,10.36
2023-05-17T21:50:15.936Z,10.34
2023-05-17T21:52:42.922Z,10.35
2023-05-17T21:55:10.021Z,10.18
2023-05-17T21:57:37.158Z,10.00
2023-05-17T22:00:05.886Z,9.89
2023-05-17T22:02:35.155Z,9.94
2023-05-17T22:05:02.404Z,9.98
2023-05-17T22:07:30.671Z,10.02
2023-05-17T22:09:57.619Z,10.06
2023-05-17T22:12:24.600Z,10.11
2023-05-17T22:14:52.024Z,10.17
2023-05-17T22:17:19.269Z,10.16
2023-05-17T22:19:46.106Z,10.22
2023-05-17T22:22:13.279Z,10.26
2023-05-17T22:24:41.617Z,10.27
2023-05-17T22:27:08.655Z,10.28
2023-05-17T22:29:35.759Z,10.30
2023-05-17T22:32:02.679Z,10.24
2023-05-17T22:34:29.673Z,10.19
2023-05-17T22:36:56.597Z,10.13
2023-05-17T22:39:23.545Z,10.09
2023-05-17T22:41:52.028Z,10.08
2023-05-17T22:44:20.076Z,9.95
2023-05-17T22:46:49.297Z,9.93
2023-05-17T22:49:16.385Z,9.88
2023-05-17T22:51:43.300Z,9.87
2023-05-17T22:54:10.318Z,9.82
2023-05-17T22:56:37.275Z,9.64
2023-05-17T22:59:05.575Z,9.58
2023-05-17T23:01:32.449Z,9.50
2023-05-17T23:03:59.417Z,9.49
2023-05-17T23:06:26.369Z,9.51
2023-05-17T23:08:53.215Z,9.47
2023-05-17T23:11:20.182Z,9.49
2023-05-17T23:13:47.108Z,9.41
2023-05-17T23:16:15.352Z,9.35
2023-05-17T23:18:42.442Z,9.11
2023-05-17T23:21:09.461Z,8.88
2023-05-17T23:23:36.535Z,8.79
2023-05-17T23:26:03.598Z,8.85
2023-05-17T23:28:31.698Z,8.87
2023-05-17T23:30:58.879Z,8.79
2023-05-17T23:33:27.219Z,8.76
2023-05-17T23:35:54.166Z,8.77
2023-05-17T23:38:21.327Z,8.84
2023-05-17T23:40:48.349Z,8.89
2023-05-17T23:43:15.257Z,8.87
2023-05-17T23:45:42.145Z,8.90
2023-05-17T23:48:09.083Z,8.87
2023-05-17T23:50:39.588Z,8.84
2023-05-17T23:53:06.790Z,8.63
2023-05-17T23:55:33.741Z,8.60
2023-05-17T23:58:00.685Z,8.53
